Time;durP1;ratioP1;P1;durP2;ratioP2;P2;SDS_P1;SDS_P2;PMS_P1;PMS_P2;Temp;Humidity;BMP_temperature;BMP_pressure;BME280_temperature;BME280_humidity;BME280_pressure;Samples;Min_cycle;Max_cycle;Signal;HPM_P1;HPM_P2
2023/05/18 00:01:54;;;;;;;9.10;8.80;;;7.30;99.90;;;;;;2614022;54;20201;-69
2023/05/18 00:07:41;;;;;;;9.07;8.77;;;7.20;99.90;;;;;;2613938;39;20483;-69
2023/05/18 00:13:29;;;;;;;7.90;7.60;;;7.10;99.90;;;;;;2613952;54;20644;-69
2023/05/18 00:19:17;;;;;;;12.03;11.40;;;7.00;99.90;;;;;;2612967;39;20794;-68
2023/05/18 00:25:04;;;;;;;10.70;9.90;;;6.90;99.90;;;;;;2614174;54;20140;-68
2023/05/18 00:30:53;;;;;;;6.87;6.67;;;6.90;99.90;;;;;;2613362;54;20187;-70
2023/05/18 00:36:40;;;;;;;12.93;11.13;;;6.80;99.90;;;;;;2614027;54;20908;-69
2023/05/18 00:42:28;;;;;;;11.97;10.83;;;6.80;99.90;;;;;;2614007;54;20126;-70
2023/05/18 00:48:16;;;;;;;7.10;6.90;;;6.80;99.90;;;;;;2613435;54;20202;-70
2023/05/18 00:54:05;;;;;;;6.60;6.40;;;6.70;99.90;;;;;;2612728;54;20251;-69
2023/05/18 01:03:56;;;;;;;19.57;8.93;;;6.40;99.90;;;;;;2613246;54;20350;-69
2023/05/18 01:09:43;;;;;;;6.40;6.20;;;6.40;99.90;;;;;;2612609;54;20467;-68
2023/05/18 01:15:36;;;;;;;8.47;8.10;;;6.30;99.90;;;;;;2614156;54;20218;-69
2023/05/18 01:28:12;;;;;;;6.57;6.27;;;6.20;99.90;;;;;;2613144;54;20953;-69
2023/05/18 01:34:00;;;;;;;5.90;5.60;;;6.20;99.90;;;;;;2613460;54;20367;-69
2023/05/18 01:39:48;;;;;;;6.53;6.13;;;6.20;99.90;;;;;;2613427;54;20123;-69
2023/05/18 01:45:39;;;;;;;6.07;5.77;;;6.10;99.90;;;;;;2612953;54;20130;-69
2023/05/18 01:51:32;;;;;;;5.47;5.20;;;6.00;99.90;;;;;;2613915;54;20413;-69
2023/05/18 01:54:36;;;;;;;5.40;5.20;;;6.00;99.90;;;;;;2612856;47;20411;-69
2023/05/18 01:57:02;;;;;;;13.70;9.70;;;5.90;99.90;;;;;;2613228;54;20413;-69
2023/05/18 02:06:12;;;;;;;10.10;8.80;;;5.70;99.90;;;;;;2611970;54;20984;-68
2023/05/18 02:11:59;;;;;;;13.47;8.93;;;5.60;99.90;;;;;;2614162;54;20134;-70
2023/05/18 02:17:47;;;;;;;11.20;9.43;;;5.40;99.90;;;;;;2613938;54;20242;-69
2023/05/18 02:23:35;;;;;;;5.43;5.23;;;5.40;99.90;;;;;;2612086;54;20158;-70
2023/05/18 02:29:23;;;;;;;4.80;4.60;;;5.50;99.90;;;;;;2613226;54;20157;-72
2023/05/18 02:35:10;;;;;;;6.87;6.47;;;5.50;99.90;;;;;;2612979;54;20131;-72
2023/05/18 02:40:58;;;;;;;4.40;4.20;;;5.40;99.90;;;;;;2613999;54;20652;-72
2023/05/18 02:46:46;;;;;;;4.43;4.23;;;5.30;99.90;;;;;;2614026;54;20578;-72
2023/05/18 02:52:34;;;;;;;5.07;4.87;;;5.30;99.90;;;;;;2613841;54;20138;-71
2023/05/18 02:58:24;;;;;;;4.40;4.20;;;5.20;99.90;;;;;;2613643;54;20130;-72
2023/05/18 03:01:39;;;;;;;4.27;4.07;;;5.10;99.90;;;;;;2613838;54;20404;-73
2023/05/18 03:04:05;;;;;;;4.40;4.20;;;5.20;99.90;;;;;;2612084;54;20901;-71
2023/05/18 03:09:53;;;;;;;3.90;3.80;;;5.20;99.90;;;;;;2614100;54;21728;-71
2023/05/18 03:15:44;;;;;;;3.80;3.70;;;5.20;99.90;;;;;;2614573;54;20218;-72
2023/05/18 03:21:35;;;;;;;6.67;6.27;;;5.10;99.90;;;;;;2613517;54;20391;-71
2023/05/18 03:27:25;;;;;;;3.70;3.60;;;5.10;99.90;;;;;;2613299;54;20366;-72
2023/05/18 03:33:13;;;;;;;3.30;3.20;;;5.00;99.90;;;;;;2614122;54;20358;-71
2023/05/18 03:39:00;;;;;;;3.70;3.60;;;5.00;99.90;;;;;;2614162;54;20704;-72
2023/05/18 03:44:48;;;;;;;9.27;8.40;;;5.00;99.90;;;;;;2613948;54;20342;-72
2023/05/18 03:50:36;;;;;;;8.37;7.57;;;4.90;99.90;;;;;;2614013;54;20158;-70
2023/05/18 03:56:24;;;;;;;8.93;7.47;;;5.00;99.90;;;;;;2613989;54;20118;-71
2023/05/18 04:06:14;;;;;;;13.07;9.60;;;5.10;99.90;;;;;;2614254;54;21231;-72
2023/05/18 04:12:02;;;;;;;10.10;8.37;;;5.30;99.90;;;;;;2614049;54;20374;-71
2023/05/18 04:17:50;;;;;;;16.90;10.00;;;5.30;99.90;;;;;;2614548;54;20115;-72
2023/05/18 04:23:39;;;;;;;10.57;9.60;;;5.40;99.90;;;;;;2614280;54;20366;-73
2023/05/18 04:29:27;;;;;;;9.90;8.83;;;5.40;99.90;;;;;;2614715;54;20343;-72
2023/05/18 04:35:15;;;;;;;17.37;9.80;;;5.50;99.90;;;;;;2613827;54;20394;-72
2023/05/18 04:41:06;;;;;;;10.33;9.00;;;5.70;99.90;;;;;;2614260;54;20930;-71
2023/05/18 04:46:55;;;;;;;13.60;11.70;;;6.20;99.90;;;;;;2614017;54;20570;-73
2023/05/18 04:52:47;;;;;;;14.00;10.80;;;6.40;99.90;;;;;;2611535;54;20434;-72
2023/05/18 04:58:35;;;;;;;14.57;13.07;;;6.60;99.90;;;;;;2614405;54;20394;-72
2023/05/18 05:01:39;;;;;;;10.97;9.93;;;6.60;99.90;;;;;;2611423;51;20379;-71
2023/05/18 05:04:05;;;;;;;13.33;10.53;;;6.80;99.90;;;;;;2614332;54;20431;-72
2023/05/18 05:09:53;;;;;;;8.17;7.67;;;7.10;99.90;;;;;;2613749;54;20632;-73
2023/05/18 05:15:41;;;;;;;7.50;7.00;;;7.40;99.90;;;;;;2613188;54;20137;-71
2023/05/18 05:21:28;;;;;;;6.83;6.53;;;7.70;99.90;;;;;;2613436;54;20300;-72
2023/05/18 05:27:16;;;;;;;6.47;6.17;;;8.10;99.90;;;;;;2613877;54;20166;-72
2023/05/18 05:33:04;;;;;;;14.43;12.27;;;8.10;99.90;;;;;;2614261;54;20258;-72
2023/05/18 05:38:51;;;;;;;13.83;12.83;;;8.80;99.90;;;;;;2613787;39;20543;-73
2023/05/18 05:44:39;;;;;;;18.73;13.10;;;9.40;99.90;;;;;;2613857;54;20167;-73
2023/05/18 05:50:27;;;;;;;7.70;7.40;;;9.50;99.90;;;;;;2614774;54;20881;-72
2023/05/18 05:56:15;;;;;;;10.37;9.87;;;10.10;99.90;;;;;;2614603;54;20134;-73
2023/05/18 06:06:15;;;;;;;9.87;9.47;;;10.50;99.90;;;;;;2614737;54;20386;-73
2023/05/18 06:12:03;;;;;;;13.90;12.73;;;10.80;99.90;;;;;;2615822;54;20510;-73
2023/05/18 06:17:51;;;;;;;11.33;10.63;;;10.90;99.90;;;;;;2614733;54;20498;-73
2023/05/18 06:23:39;;;;;;;10.93;10.27;;;10.80;99.90;;;;;;2614171;54;20949;-73
2023/05/18 06:29:27;;;;;;;12.13;11.53;;;11.20;99.90;;;;;;2616219;54;20114;-73
2023/05/18 06:35:14;;;;;;;11.87;11.20;;;11.70;99.90;;;;;;2614681;54;20134;-73
2023/05/18 06:41:02;;;;;;;13.03;12.50;;;11.70;99.00;;;;;;2615521;54;20142;-73
2023/05/18 06:46:50;;;;;;;13.20;12.60;;;12.00;90.40;;;;;;2615294;54;20130;-72
2023/05/18 06:52:38;;;;;;;10.17;9.87;;;12.50;72.70;;;;;;2615081;54;20122;-72
2023/05/18 06:58:25;;;;;;;20.03;14.43;;;12.40;66.10;;;;;;2613914;54;20567;-72
2023/05/18 07:04:25;;;;;;;16.00;14.87;;;12.60;56.30;;;;;;2613454;54;20155;-72
2023/05/18 07:10:12;;;;;;;16.00;14.20;;;13.40;49.30;;;;;;2614016;54;20118;-73
2023/05/18 07:16:00;;;;;;;15.40;14.30;;;13.10;42.70;;;;;;2612985;54;20145;-72
2023/05/18 07:21:47;;;;;;;14.87;13.93;;;13.30;36.50;;;;;;2613686;54;20131;-71
2023/05/18 07:27:34;;;;;;;16.33;14.93;;;13.20;37.10;;;;;;2612268;54;20218;-72
2023/05/18 07:33:21;;;;;;;16.03;14.50;;;13.20;34.90;;;;;;2610625;54;20137;-71
2023/05/18 07:39:16;;;;;;;14.80;13.87;;;13.20;34.40;;;;;;2612253;54;20153;-72
2023/05/18 07:45:04;;;;;;;15.47;14.60;;;13.40;32.00;;;;;;2612878;54;20454;-72
2023/05/18 07:50:52;;;;;;;17.10;14.80;;;14.10;29.00;;;;;;2613306;54;20961;-72
2023/05/18 07:56:40;;;;;;;16.10;14.83;;;14.10;27.60;;;;;;2613872;54;20402;-72
2023/05/18 08:06:09;;;;;;;11.83;11.43;;;14.00;26.20;;;;;;2613939;54;20354;-72
2023/05/18 08:11:57;;;;;;;14.03;12.87;;;14.60;22.20;;;;;;2614730;54;20399;-72
2023/05/18 08:17:46;;;;;;;15.90;14.40;;;14.90;23.10;;;;;;2611397;46;20169;-73
2023/05/18 08:23:34;;;;;;;15.07;13.97;;;14.70;22.20;;;;;;2612724;54;21858;-73
2023/05/18 08:29:22;;;;;;;16.07;14.97;;;14.90;19.70;;;;;;2612517;54;20422;-73
2023/05/18 08:35:10;;;;;;;13.57;12.60;;;15.50;18.00;;;;;;2613013;39;20485;-73
2023/05/18 08:47:35;;;;;;;12.40;12.00;;;15.30;14.80;;;;;;2614175;39;20866;-72
2023/05/18 08:53:24;;;;;;;11.37;10.97;;;15.40;15.10;;;;;;2612886;54;20374;-72
2023/05/18 08:59:15;;;;;;;12.20;11.60;;;16.00;15.40;;;;;;2614126;54;20422;-74
2023/05/18 09:08:28;;;;;;;12.20;11.70;;;15.90;13.90;;;;;;2611804;54;20968;-75
2023/05/18 09:14:15;;;;;;;12.10;11.57;;;16.60;12.00;;;;;;2613255;54;20395;-74
2023/05/18 09:20:06;;;;;;;16.77;15.50;;;16.90;10.20;;;;;;2613364;54;20174;-74
2023/05/18 09:25:55;;;;;;;18.80;17.30;;;17.00;11.30;;;;;;2614267;54;20418;-75
2023/05/18 09:31:45;;;;;;;17.00;15.80;;;16.00;12.70;;;;;;2613019;54;20402;-74
2023/05/18 09:37:33;;;;;;;16.43;15.53;;;16.60;9.80;;;;;;2612993;54;20382;-73
2023/05/18 09:43:22;;;;;;;16.70;15.60;;;16.50;9.60;;;;;;2613657;54;20594;-72
2023/05/18 09:49:10;;;;;;;16.17;14.83;;;16.40;10.40;;;;;;2612412;54;20435;-72
2023/05/18 09:55:00;;;;;;;14.33;13.57;;;17.30;9.50;;;;;;2613132;54;21003;-72
2023/05/18 10:00:50;;;;;;;11.60;11.20;;;16.90;8.10;;;;;;2612336;54;20363;-73
2023/05/18 10:03:54;;;;;;;13.83;13.00;;;17.90;9.30;;;;;;2611601;54;20491;-73
2023/05/18 10:06:26;;;;;;;12.73;12.23;;;17.60;6.40;;;;;;2613896;39;20825;-73
2023/05/18 10:12:20;;;;;;;15.13;13.73;;;16.90;8.30;;;;;;2612280;54;20434;-73
2023/05/18 10:18:07;;;;;;;13.67;12.50;;;16.70;7.40;;;;;;2613104;54;20442;-73
2023/05/18 10:23:56;;;;;;;15.67;12.63;;;17.60;6.40;;;;;;2611796;54;20126;-71
2023/05/18 10:29:45;;;;;;;15.00;14.40;;;17.20;7.20;;;;;;2613586;31;20830;-74
2023/05/18 10:35:34;;;;;;;11.90;11.50;;;16.50;7.50;;;;;;2613638;39;20926;-74
2023/05/18 10:41:23;;;;;;;13.63;13.03;;;18.00;5.50;;;;;;2611755;54;20427;-73
2023/05/18 10:47:14;;;;;;;13.90;13.30;;;18.00;6.60;;;;;;2609330;39;20961;-73
2023/05/18 10:53:03;;;;;;;13.83;13.23;;;17.40;5.40;;;;;;2611280;54;20391;-73
2023/05/18 10:58:51;;;;;;;14.00;13.30;;;17.90;6.60;;;;;;2612632;54;20407;-74
2023/05/18 11:08:26;;;;;;;14.23;13.33;;;18.30;6.20;;;;;;2613688;54;20391;-74
2023/05/18 11:20:29;;;;;;;14.07;13.47;;;18.50;1.80;;;;;;2612920;54;20482;-74
2023/05/18 11:26:17;;;;;;;12.90;12.23;;;19.40;2.40;;;;;;2613541;39;20560;-73
2023/05/18 11:38:50;;;;;;;14.97;13.93;;;18.60;1.00;;;;;;2611605;54;20434;-73
2023/05/18 11:44:38;;;;;;;12.93;12.33;;;18.60;2.80;;;;;;2607961;54;20391;-75
2023/05/18 11:50:29;;;;;;;13.10;12.60;;;18.10;2.30;;;;;;2609100;46;20563;-75
2023/05/18 11:56:17;;;;;;;17.07;15.73;;;18.50;1.40;;;;;;2608223;54;21067;-73
2023/05/18 12:02:06;;;;;;;12.80;12.30;;;18.90;1.10;;;;;;2609400;39;20841;-74
2023/05/18 12:11:16;;;;;;;13.63;13.07;;;19.30;1.00;;;;;;2609313;54;20423;-74
2023/05/18 12:17:04;;;;;;;14.17;13.37;;;19.20;1.00;;;;;;2608703;54;20135;-74
2023/05/18 12:22:54;;;;;;;14.00;13.50;;;18.60;1.50;;;;;;2609851;54;20203;-74
2023/05/18 12:28:41;;;;;;;15.00;14.10;;;18.90;2.00;;;;;;2612738;54;20387;-73
2023/05/18 12:34:29;;;;;;;14.33;13.63;;;19.40;1.20;;;;;;2613829;54;20134;-73
2023/05/18 12:40:19;;;;;;;12.30;11.90;;;19.60;1.00;;;;;;2612644;54;20723;-75
2023/05/18 12:46:06;;;;;;;14.53;13.83;;;19.60;1.00;;;;;;2613523;54;20427;-72
2023/05/18 12:51:54;;;;;;;13.40;12.90;;;18.70;1.00;;;;;;2612217;54;20145;-73
2023/05/18 12:57:42;;;;;;;13.63;13.13;;;19.30;1.60;;;;;;2612629;54;20928;-72
2023/05/18 13:03:32;;;;;;;14.00;13.40;;;19.10;1.90;;;;;;2614023;54;20122;-73
2023/05/18 13:06:45;;;;;;;13.20;12.70;;;19.20;1.00;;;;;;2612336;47;20535;-73
2023/05/18 13:09:11;;;;;;;15.93;15.10;;;18.80;1.00;;;;;;2611551;47;21001;-73
2023/05/18 13:15:05;;;;;;;14.53;13.93;;;19.10;1.80;;;;;;2613404;54;20403;-73
2023/05/18 13:20:55;;;;;;;15.40;14.53;;;19.20;1.00;;;;;;2612845;54;20368;-72
2023/05/18 13:26:43;;;;;;;13.97;13.37;;;19.00;1.00;;;;;;2612547;54;20936;-73
2023/05/18 13:32:32;;;;;;;12.07;11.37;;;19.40;1.00;;;;;;2609888;39;20548;-72
2023/05/18 13:38:20;;;;;;;15.60;14.70;;;19.60;1.00;;;;;;2610037;54;20399;-72
2023/05/18 13:41:23;;;;;;;13.53;13.03;;;18.90;1.00;;;;;;2611596;54;20400;-72
2023/05/18 13:43:48;;;;;;;14.27;13.67;;;19.30;1.00;;;;;;2612028;54;20162;-72
2023/05/18 13:49:36;;;;;;;13.37;12.87;;;18.90;1.00;;;;;;2612657;54;20178;-72
2023/05/18 13:55:24;;;;;;;13.87;13.20;;;19.10;1.00;;;;;;2613179;54;20121;-72
2023/05/18 14:01:12;;;;;;;14.03;13.33;;;19.40;1.00;;;;;;2611239;39;20558;-72
2023/05/18 14:11:18;;;;;;;15.23;14.53;;;19.30;1.00;;;;;;2612552;54;20430;-72
2023/05/18 14:17:06;;;;;;;12.70;12.20;;;19.30;1.00;;;;;;2611427;39;21262;-73
2023/05/18 14:22:53;;;;;;;13.20;12.50;;;19.80;1.00;;;;;;2611649;54;21056;-72
2023/05/18 14:28:41;;;;;;;14.93;12.80;;;19.50;1.00;;;;;;2612963;39;20513;-72
2023/05/18 14:34:29;;;;;;;13.07;12.57;;;19.70;1.00;;;;;;2611321;46;20161;-73
2023/05/18 14:40:16;;;;;;;12.87;12.37;;;19.20;1.00;;;;;;2613644;54;20130;-72
2023/05/18 14:46:04;;;;;;;13.00;12.50;;;19.40;1.00;;;;;;2613509;54;20660;-72
2023/05/18 14:51:52;;;;;;;13.30;12.83;;;19.00;1.00;;;;;;2612868;54;20239;-73
2023/05/18 14:57:40;;;;;;;13.27;12.57;;;19.30;1.00;;;;;;2613253;54;20169;-73
2023/05/18 15:03:27;;;;;;;13.50;13.00;;;19.30;1.00;;;;;;2613523;54;20113;-73
2023/05/18 15:06:45;;;;;;;14.03;13.43;;;19.20;1.00;;;;;;2609618;47;20416;-73
2023/05/18 15:09:11;;;;;;;13.87;13.37;;;18.90;1.00;;;;;;2612105;46;20713;-73
2023/05/18 15:14:59;;;;;;;17.10;16.00;;;19.10;1.00;;;;;;2613847;54;20703;-73
2023/05/18 15:20:47;;;;;;;14.20;13.70;;;18.90;1.00;;;;;;2612544;54;20251;-73
2023/05/18 15:26:35;;;;;;;14.77;14.27;;;19.20;1.00;;;;;;2613053;54;20161;-73
2023/05/18 15:32:23;;;;;;;16.10;15.07;;;19.10;1.40;;;;;;2613528;54;20391;-72
2023/05/18 15:38:11;;;;;;;13.93;13.43;;;19.30;1.00;;;;;;2613846;46;20154;-73
2023/05/18 15:44:00;;;;;;;15.20;14.53;;;19.00;1.00;;;;;;2611231;54;20202;-73
2023/05/18 15:49:48;;;;;;;26.13;24.17;;;18.50;1.00;;;;;;2613745;54;20398;-73
2023/05/18 15:55:36;;;;;;;15.00;14.20;;;18.90;1.00;;;;;;2611449;54;20162;-73
2023/05/18 16:01:23;;;;;;;16.93;16.23;;;18.20;1.00;;;;;;2611712;54;20656;-72
2023/05/18 16:11:17;;;;;;;17.87;16.60;;;19.40;1.00;;;;;;2612977;54;21143;-73
2023/05/18 16:17:05;;;;;;;14.63;14.03;;;19.70;1.00;;;;;;2612342;54;20439;-72
2023/05/18 16:22:54;;;;;;;15.27;14.63;;;19.60;1.00;;;;;;2612034;54;20419;-72
2023/05/18 16:28:42;;;;;;;17.30;16.37;;;19.10;1.00;;;;;;2612746;54;20157;-72
2023/05/18 16:34:30;;;;;;;14.67;14.10;;;19.30;1.00;;;;;;2613182;54;20198;-72
2023/05/18 16:40:17;;;;;;;14.83;14.23;;;18.60;1.00;;;;;;2613587;54;20639;-73
2023/05/18 16:46:05;;;;;;;14.50;13.90;;;18.20;1.40;;;;;;2611986;54;20122;-73
2023/05/18 16:51:53;;;;;;;14.50;14.00;;;18.30;1.70;;;;;;2610453;54;20319;-73
2023/05/18 16:57:42;;;;;;;14.37;13.67;;;17.70;1.70;;;;;;2611426;54;20145;-72
2023/05/18 17:03:33;;;;;;;13.93;13.43;;;17.70;2.20;;;;;;2611775;54;20400;-72
2023/05/18 17:09:29;;;;;;;14.40;13.90;;;17.20;3.00;;;;;;2611429;54;20403;-72
2023/05/18 17:15:15;;;;;;;15.47;14.70;;;17.10;4.00;;;;;;2612147;54;20158;-72
2023/05/18 17:21:02;;;;;;;13.60;13.10;;;16.70;5.30;;;;;;2611407;54;20876;-73
2023/05/18 17:26:50;;;;;;;15.60;14.70;;;16.40;6.10;;;;;;2608580;54;20279;-72
2023/05/18 17:32:38;;;;;;;13.87;13.37;;;16.40;7.00;;;;;;2610501;54;20137;-73
2023/05/18 17:38:25;;;;;;;15.00;14.40;;;16.10;7.00;;;;;;2611394;54;20417;-73
2023/05/18 17:44:12;;;;;;;13.53;13.03;;;16.00;7.60;;;;;;2611780;54;20399;-72
2023/05/18 17:50:00;;;;;;;13.47;13.00;;;15.80;8.30;;;;;;2609925;54;20399;-73
2023/05/18 17:55:48;;;;;;;14.00;13.50;;;15.70;8.20;;;;;;2611977;54;20235;-73
2023/05/18 18:01:36;;;;;;;14.93;14.33;;;15.60;8.50;;;;;;2611038;54;20138;-73
2023/05/18 18:11:18;;;;;;;13.57;13.07;;;15.30;10.00;;;;;;2612393;54;20508;-73
2023/05/18 18:17:05;;;;;;;15.43;14.83;;;15.20;11.30;;;;;;2612575;54;21040;-73
2023/05/18 18:22:53;;;;;;;16.00;14.73;;;15.10;11.90;;;;;;2611746;54;20141;-73
2023/05/18 18:28:42;;;;;;;13.23;12.63;;;15.00;12.00;;;;;;2612863;54;20143;-72
2023/05/18 18:34:31;;;;;;;14.70;13.97;;;14.80;13.30;;;;;;2613784;54;20450;-73
2023/05/18 18:40:18;;;;;;;13.20;12.80;;;14.70;14.60;;;;;;2613684;54;20173;-73
2023/05/18 18:46:06;;;;;;;14.80;14.30;;;14.60;15.70;;;;;;2614039;54;20134;-72
2023/05/18 18:51:57;;;;;;;13.53;13.10;;;14.40;16.80;;;;;;2612973;54;20503;-73
2023/05/18 18:57:45;;;;;;;14.30;13.80;;;14.30;17.70;;;;;;2612584;54;20379;-75
2023/05/18 19:03:34;;;;;;;14.30;13.77;;;14.20;18.30;;;;;;2612308;54;20215;-72
2023/05/18 19:06:46;;;;;;;13.63;13.20;;;14.10;19.00;;;;;;2613212;54;20442;-73
2023/05/18 19:09:12;;;;;;;16.13;15.43;;;14.00;20.20;;;;;;2613883;39;20811;-73
2023/05/18 19:15:00;;;;;;;15.20;14.30;;;14.00;20.60;;;;;;2613351;54;20399;-73
2023/05/18 19:20:49;;;;;;;14.23;13.63;;;13.80;22.40;;;;;;2609821;54;21124;-73
2023/05/18 19:26:39;;;;;;;13.43;12.97;;;13.70;23.60;;;;;;2613606;54;20562;-72
2023/05/18 19:32:29;;;;;;;13.30;12.80;;;13.40;25.90;;;;;;2611411;39;20408;-73
2023/05/18 19:35:33;;;;;;;13.90;13.40;;;13.30;27.40;;;;;;2610370;46;21196;-72
2023/05/18 19:38:00;;;;;;;13.27;12.87;;;13.30;27.50;;;;;;2612270;54;20434;-73
2023/05/18 19:43:48;;;;;;;13.67;13.17;;;13.20;29.20;;;;;;2612876;46;20437;-73
2023/05/18 19:49:36;;;;;;;13.60;13.10;;;13.30;28.50;;;;;;2613525;46;20258;-72
2023/05/18 19:55:24;;;;;;;14.60;14.10;;;13.10;29.90;;;;;;2613705;54;20133;-73
2023/05/18 20:01:11;;;;;;;14.70;14.13;;;12.90;33.10;;;;;;2611356;54;20982;-73
2023/05/18 20:11:17;;;;;;;12.83;12.43;;;12.80;38.40;;;;;;2612702;54;20407;-72
2023/05/18 20:17:05;;;;;;;16.17;14.33;;;12.60;41.90;;;;;;2612093;54;20395;-73
2023/05/18 20:22:53;;;;;;;13.90;13.40;;;12.70;39.90;;;;;;2612667;54;20223;-73
2023/05/18 20:28:41;;;;;;;14.53;14.03;;;12.60;41.60;;;;;;2613556;31;20570;-73
2023/05/18 20:34:29;;;;;;;13.10;12.70;;;12.40;45.40;;;;;;2613598;54;20122;-73
2023/05/18 20:40:17;;;;;;;13.40;13.00;;;12.30;50.30;;;;;;2613130;54;20155;-73
2023/05/18 20:46:06;;;;;;;14.80;14.20;;;12.10;55.90;;;;;;2611114;54;20399;-72
2023/05/18 20:51:55;;;;;;;14.27;13.77;;;12.00;63.50;;;;;;2611182;54;20430;-72
2023/05/18 20:57:47;;;;;;;15.80;14.93;;;12.10;56.70;;;;;;2612928;54;20434;-73
2023/05/18 21:03:37;;;;;;;12.70;12.30;;;12.00;58.40;;;;;;2612452;54;20386;-72
2023/05/18 21:06:43;;;;;;;12.50;12.10;;;12.00;59.10;;;;;;2612599;47;20450;-73
2023/05/18 21:09:09;;;;;;;13.73;12.87;;;11.90;61.10;;;;;;2610706;46;20537;-73
2023/05/18 21:14:57;;;;;;;14.00;13.50;;;11.80;65.90;;;;;;2611216;54;20146;-73
2023/05/18 21:20:46;;;;;;;14.20;13.60;;;11.80;64.00;;;;;;2611629;54;20130;-72
2023/05/18 21:26:34;;;;;;;15.27;14.10;;;11.70;64.60;;;;;;2610731;54;20413;-72
2023/05/18 21:32:23;;;;;;;14.00;13.50;;;11.60;68.00;;;;;;2609542;54;20138;-73
2023/05/18 21:38:11;;;;;;;13.37;12.87;;;11.50;73.40;;;;;;2610368;54;20991;-73
2023/05/18 21:43:59;;;;;;;12.80;12.40;;;11.40;78.10;;;;;;2610222;54;20138;-73
2023/05/18 21:49:46;;;;;;;14.30;13.43;;;11.30;87.70;;;;;;2609501;54;20150;-73
2023/05/18 21:55:34;;;;;;;13.87;13.37;;;11.20;90.80;;;;;;2613423;54;20665;-73
2023/05/18 22:01:23;;;;;;;12.83;12.43;;;11.00;93.20;;;;;;2612410;54;20383;-72
2023/05/18 22:11:23;;;;;;;12.90;12.50;;;10.80;99.90;;;;;;2610674;54;20402;-72
2023/05/18 22:17:11;;;;;;;12.07;11.67;;;10.70;99.90;;;;;;2612151;39;20885;-72
2023/05/18 22:22:58;;;;;;;13.17;12.67;;;10.60;99.90;;;;;;2612428;54;20122;-73
2023/05/18 22:28:46;;;;;;;12.40;12.00;;;10.50;99.90;;;;;;2611551;54;20920;-73
2023/05/18 22:34:34;;;;;;;12.10;11.70;;;10.30;99.90;;;;;;2611076;54;20166;-73
2023/05/18 22:40:23;;;;;;;12.40;12.00;;;10.20;99.90;;;;;;2610182;54;20169;-72
2023/05/18 22:46:11;;;;;;;12.90;12.50;;;10.00;99.90;;;;;;2608094;54;20423;-74
2023/05/18 22:51:59;;;;;;;11.77;11.37;;;9.90;99.90;;;;;;2610304;39;20537;-71
2023/05/18 22:57:47;;;;;;;11.20;10.80;;;9.60;99.90;;;;;;2613623;54;20134;-73
2023/05/18 23:03:35;;;;;;;11.23;10.83;;;9.50;99.90;;;;;;2613988;54;20131;-72
2023/05/18 23:06:49;;;;;;;11.20;10.80;;;9.30;99.90;;;;;;2611147;39;20898;-72
2023/05/18 23:09:15;;;;;;;11.13;10.73;;;9.40;99.90;;;;;;2610821;54;20157;-72
2023/05/18 23:15:04;;;;;;;10.80;10.40;;;9.20;99.90;;;;;;2611088;54;20423;-73
2023/05/18 23:20:57;;;;;;;11.03;10.63;;;9.20;99.90;;;;;;2611245;54;20363;-73
2023/05/18 23:26:45;;;;;;;10.97;10.57;;;9.10;99.90;;;;;;2611214;54;20394;-72
2023/05/18 23:32:34;;;;;;;10.20;9.90;;;9.00;99.90;;;;;;2610667;54;20134;-72
2023/05/18 23:38:27;;;;;;;9.87;9.57;;;9.00;99.90;;;;;;2610692;54;20977;-72
2023/05/18 23:44:15;;;;;;;10.87;10.47;;;8.90;99.90;;;;;;2610572;54;20407;-73
2023/05/18 23:50:04;;;;;;;9.57;9.27;;;8.90;99.90;;;;;;2611680;54;20395;-72
2023/05/18 23:55:52;;;;;;;9.50;9.20;;;8.80;99.90;;;;;;2614508;54;20431;-72
